Plumtree, NC (28664)

7:10 PM EST on November 19, 2017 (GMT -0500)
Cripple Creek@ | | Change Station

Elev 3832 ft 36.10 °N, 81.92 °W | Updated 14 seconds ago

Clear
Clear
28.2 °F
Feels Like 21 °F
N
6.5
Wind Variable Wind from WNW
Gusts 22.8 mph

Today
High -- | Low -- °F
--% Chance of Precip.
Yesterday
High -- | Low -- °F
Precip. -- in
Pressure 29.93 in
Visibility 10.0 miles
Clouds Clear
Windchill 21 °F
Dew Point 24 °F
Humidity 85%
Rainfall 0.11 in
Snow Depth Not available.
7:08 AM 5:17 PM
New Moon, 2% visible
METAR KTNB 192355Z AUTO 29028G38KT 10SM CLR 00/M05 A2993 RMK AO2 T00001055 10021 20000
Pressure 29.93 in
Visibility 10.0 miles
Clouds Clear
Windchill 21 °F
Dew Point 24 °F
Humidity 85%
Rainfall 0.11 in
Snow Depth Not available.
7:08 AM 5:17 PM
New Moon, 2% visible
METAR KTNB 192355Z AUTO 29028G38KT 10SM CLR 00/M05 A2993 RMK AO2 T00001055 10021 20000

Get Severe Weather Alerts

Thanks for signing up!

Be on the lookout for a verification email in your inbox.

You'll start receiving the daily forecast at 6 AM.

×

10-Day Weather Forecast

Almanac

Astronomy

Nov. 19, 2017 Rise Set
Actual Time
Civil Twilight
Nautical Twilight
Astronomical Twilight
Moon
Length of Visible Light
Length of Day
Tomorrow will be .
, % of the Moon is Illuminated

Today's Extremes

State Highs State Lows

Community

WunderPhotos

Category 6

Welcome to Category 6. This is the collective home for Weather Underground's featured writeups by Dr. Jeff Masters (right), Bob Henson (left), Chris Burt, and other regular contributors.

Nearby

Air Quality

  Air Quality AQ Index Pollutant
Not available.

Snow Depth

Station Depth Elevation

Earthquake Activity

City Distance Mag. Time & Date
Minimum magnitude displayed is 2.5.

Coastal Water Temperatures

Place Temperature

Stations

Nearby Weather Stations

Station Location Temp. Windchill Dew Point Humidity Wind Precip. Elev Updated Type
                   

Watches & Warnings

There are currently no watches in effect.